sensor_id;sensor_type;location;lat;lon;timestamp;temperature;humidity
4962;DHT22;2496;52.468;13.342;2023-12-20T00:02:04;6.90;99.90
4962;DHT22;2496;52.468;13.342;2023-12-20T00:04:32;6.90;99.90
4962;DHT22;2496;52.468;13.342;2023-12-20T00:06:59;6.90;99.90
4962;DHT22;2496;52.468;13.342;2023-12-20T00:09:27;6.90;99.90
4962;DHT22;2496;52.468;13.342;2023-12-20T00:11:55;6.90;99.90
4962;DHT22;2496;52.468;13.342;2023-12-20T00:14:22;6.90;99.90
4962;DHT22;2496;52.468;13.342;2023-12-20T00:16:50;6.90;99.90
4962;DHT22;2496;52.468;13.342;2023-12-20T00:19:17;6.90;99.90
4962;DHT22;2496;52.468;13.342;2023-12-20T00:21:44;6.90;99.90
4962;DHT22;2496;52.468;13.342;2023-12-20T00:24:11;6.90;99.90
4962;DHT22;2496;52.468;13.342;2023-12-20T00:26:38;6.90;99.90
4962;DHT22;2496;52.468;13.342;2023-12-20T00:29:06;6.90;99.90
4962;DHT22;2496;52.468;13.342;2023-12-20T00:31:33;7.00;99.90
4962;DHT22;2496;52.468;13.342;2023-12-20T00:34:00;6.90;99.90
4962;DHT22;2496;52.468;13.342;2023-12-20T00:36:27;6.90;99.90
4962;DHT22;2496;52.468;13.342;2023-12-20T00:38:54;6.90;99.90
4962;DHT22;2496;52.468;13.342;2023-12-20T00:41:21;6.90;99.90
4962;DHT22;2496;52.468;13.342;2023-12-20T00:43:48;6.90;99.90
4962;DHT22;2496;52.468;13.342;2023-12-20T00:46:16;6.90;99.90
4962;DHT22;2496;52.468;13.342;2023-12-20T00:48:43;6.90;99.90
4962;DHT22;2496;52.468;13.342;2023-12-20T00:51:13;6.90;99.90
4962;DHT22;2496;52.468;13.342;2023-12-20T00:53:41;6.90;99.90
4962;DHT22;2496;52.468;13.342;2023-12-20T00:56:10;6.90;99.90
4962;DHT22;2496;52.468;13.342;2023-12-20T00:58:37;6.90;99.90
4962;DHT22;2496;52.468;13.342;2023-12-20T01:01:04;6.90;99.90
4962;DHT22;2496;52.468;13.342;2023-12-20T01:03:32;6.90;99.90
4962;DHT22;2496;52.468;13.342;2023-12-20T01:05:59;6.90;99.90
4962;DHT22;2496;52.468;13.342;2023-12-20T01:08:26;6.90;99.90
4962;DHT22;2496;52.468;13.342;2023-12-20T01:10:53;6.90;99.90
4962;DHT22;2496;52.468;13.342;2023-12-20T01:13:20;6.90;99.90
4962;DHT22;2496;52.468;13.342;2023-12-20T01:15:50;6.90;99.90
4962;DHT22;2496;52.468;13.342;2023-12-20T01:18:17;6.90;99.90
4962;DHT22;2496;52.468;13.342;2023-12-20T01:20:45;6.90;99.90
4962;DHT22;2496;52.468;13.342;2023-12-20T01:23:12;6.90;99.90
4962;DHT22;2496;52.468;13.342;2023-12-20T01:25:39;6.90;99.90
4962;DHT22;2496;52.468;13.342;2023-12-20T01:28:06;6.90;99.90
4962;DHT22;2496;52.468;13.342;2023-12-20T01:30:33;6.90;99.90
4962;DHT22;2496;52.468;13.342;2023-12-20T01:33:00;6.90;99.90
4962;DHT22;2496;52.468;13.342;2023-12-20T01:35:27;6.90;99.90
4962;DHT22;2496;52.468;13.342;2023-12-20T01:37:56;6.90;99.90
4962;DHT22;2496;52.468;13.342;2023-12-20T01:40:23;6.90;99.90
4962;DHT22;2496;52.468;13.342;2023-12-20T01:42:58;6.90;99.90
4962;DHT22;2496;52.468;13.342;2023-12-20T01:45:25;6.90;99.90
4962;DHT22;2496;52.468;13.342;2023-12-20T01:47:52;6.90;99.90
4962;DHT22;2496;52.468;13.342;2023-12-20T01:50:20;6.90;99.90
4962;DHT22;2496;52.468;13.342;2023-12-20T01:52:48;6.90;99.90
4962;DHT22;2496;52.468;13.342;2023-12-20T01:55:19;6.90;99.90
4962;DHT22;2496;52.468;13.342;2023-12-20T01:57:47;6.90;99.90
4962;DHT22;2496;52.468;13.342;2023-12-20T02:00:15;6.90;99.90
4962;DHT22;2496;52.468;13.342;2023-12-20T02:02:43;6.90;99.90
4962;DHT22;2496;52.468;13.342;2023-12-20T02:05:11;6.90;99.90
4962;DHT22;2496;52.468;13.342;2023-12-20T02:07:41;6.90;99.90
4962;DHT22;2496;52.468;13.342;2023-12-20T02:10:08;6.90;99.90
4962;DHT22;2496;52.468;13.342;2023-12-20T02:12:37;6.90;99.90
4962;DHT22;2496;52.468;13.342;2023-12-20T02:15:05;6.90;99.90
4962;DHT22;2496;52.468;13.342;2023-12-20T02:17:33;6.90;99.90
4962;DHT22;2496;52.468;13.342;2023-12-20T02:20:00;6.90;99.90
4962;DHT22;2496;52.468;13.342;2023-12-20T02:22:29;6.90;99.90
4962;DHT22;2496;52.468;13.342;2023-12-20T02:24:56;6.90;99.90
4962;DHT22;2496;52.468;13.342;2023-12-20T02:27:23;6.90;99.90
4962;DHT22;2496;52.468;13.342;2023-12-20T02:29:50;6.90;99.90
4962;DHT22;2496;52.468;13.342;2023-12-20T02:32:18;7.00;99.90
4962;DHT22;2496;52.468;13.342;2023-12-20T02:34:47;7.00;99.90
4962;DHT22;2496;52.468;13.342;2023-12-20T02:37:14;7.00;99.90
4962;DHT22;2496;52.468;13.342;2023-12-20T02:39:43;7.00;99.90
4962;DHT22;2496;52.468;13.342;2023-12-20T02:42:10;7.00;99.90
4962;DHT22;2496;52.468;13.342;2023-12-20T02:44:37;7.00;99.90
4962;DHT22;2496;52.468;13.342;2023-12-20T02:47:04;7.00;99.90
4962;DHT22;2496;52.468;13.342;2023-12-20T02:49:31;7.00;99.90
4962;DHT22;2496;52.468;13.342;2023-12-20T02:51:58;7.00;99.90
4962;DHT22;2496;52.468;13.342;2023-12-20T02:54:25;7.00;99.90
4962;DHT22;2496;52.468;13.342;2023-12-20T02:56:53;7.00;99.90
4962;DHT22;2496;52.468;13.342;2023-12-20T02:59:20;7.00;99.90
4962;DHT22;2496;52.468;13.342;2023-12-20T03:01:48;7.00;99.90
4962;DHT22;2496;52.468;13.342;2023-12-20T03:04:14;7.00;99.90
4962;DHT22;2496;52.468;13.342;2023-12-20T03:06:41;7.00;99.90
4962;DHT22;2496;52.468;13.342;2023-12-20T03:09:08;7.00;99.90
4962;DHT22;2496;52.468;13.342;2023-12-20T03:11:35;7.00;99.90
4962;DHT22;2496;52.468;13.342;2023-12-20T03:14:04;7.00;99.90
4962;DHT22;2496;52.468;13.342;2023-12-20T03:16:31;6.90;99.90
4962;DHT22;2496;52.468;13.342;2023-12-20T03:18:58;6.90;99.90
4962;DHT22;2496;52.468;13.342;2023-12-20T03:21:25;6.90;99.90
4962;DHT22;2496;52.468;13.342;2023-12-20T03:23:52;6.90;99.90
4962;DHT22;2496;52.468;13.342;2023-12-20T03:26:19;6.90;99.90
4962;DHT22;2496;52.468;13.342;2023-12-20T03:28:47;6.90;99.90
4962;DHT22;2496;52.468;13.342;2023-12-20T03:31:16;6.90;99.90
4962;DHT22;2496;52.468;13.342;2023-12-20T03:33:43;6.90;99.90
4962;DHT22;2496;52.468;13.342;2023-12-20T03:36:10;6.90;99.90
4962;DHT22;2496;52.468;13.342;2023-12-20T03:38:39;6.90;99.90
4962;DHT22;2496;52.468;13.342;2023-12-20T03:41:07;6.90;99.90
4962;DHT22;2496;52.468;13.342;2023-12-20T03:43:34;6.90;99.90
4962;DHT22;2496;52.468;13.342;2023-12-20T03:46:01;6.90;99.90
4962;DHT22;2496;52.468;13.342;2023-12-20T03:48:31;6.90;99.90
4962;DHT22;2496;52.468;13.342;2023-12-20T03:50:58;6.90;99.90
4962;DHT22;2496;52.468;13.342;2023-12-20T03:53:25;6.90;99.90
4962;DHT22;2496;52.468;13.342;2023-12-20T03:55:51;6.90;99.90
4962;DHT22;2496;52.468;13.342;2023-12-20T03:58:18;6.90;99.90
4962;DHT22;2496;52.468;13.342;2023-12-20T04:00:45;6.90;99.90
4962;DHT22;2496;52.468;13.342;2023-12-20T04:03:13;6.90;99.90
4962;DHT22;2496;52.468;13.342;2023-12-20T04:05:41;6.90;99.90
4962;DHT22;2496;52.468;13.342;2023-12-20T04:08:09;6.90;99.90
4962;DHT22;2496;52.468;13.342;2023-12-20T04:10:36;6.90;99.90
4962;DHT22;2496;52.468;13.342;2023-12-20T04:13:04;6.90;99.90
4962;DHT22;2496;52.468;13.342;2023-12-20T04:15:31;6.80;99.90
4962;DHT22;2496;52.468;13.342;2023-12-20T04:17:58;6.80;99.90
4962;DHT22;2496;52.468;13.342;2023-12-20T04:20:24;6.80;99.90
4962;DHT22;2496;52.468;13.342;2023-12-20T04:22:53;6.70;99.90
4962;DHT22;2496;52.468;13.342;2023-12-20T04:25:20;6.70;99.90
4962;DHT22;2496;52.468;13.342;2023-12-20T04:27:47;6.70;99.90
4962;DHT22;2496;52.468;13.342;2023-12-20T04:30:14;6.70;99.90
4962;DHT22;2496;52.468;13.342;2023-12-20T04:32:42;6.70;99.90
4962;DHT22;2496;52.468;13.342;2023-12-20T04:35:09;6.60;99.90
4962;DHT22;2496;52.468;13.342;2023-12-20T04:37:36;6.60;99.90
4962;DHT22;2496;52.468;13.342;2023-12-20T04:40:06;6.60;99.90
4962;DHT22;2496;52.468;13.342;2023-12-20T04:42:33;6.50;99.90
4962;DHT22;2496;52.468;13.342;2023-12-20T04:45:00;6.50;99.90
4962;DHT22;2496;52.468;13.342;2023-12-20T04:47:28;6.50;99.90
4962;DHT22;2496;52.468;13.342;2023-12-20T04:49:55;6.50;99.90
4962;DHT22;2496;52.468;13.342;2023-12-20T04:52:23;6.50;99.90
4962;DHT22;2496;52.468;13.342;2023-12-20T04:54:52;6.40;99.90
4962;DHT22;2496;52.468;13.342;2023-12-20T04:57:21;6.40;99.90
4962;DHT22;2496;52.468;13.342;2023-12-20T04:59:48;6.40;99.90
4962;DHT22;2496;52.468;13.342;2023-12-20T05:02:15;6.40;99.90
4962;DHT22;2496;52.468;13.342;2023-12-20T05:04:42;6.30;99.90
4962;DHT22;2496;52.468;13.342;2023-12-20T05:07:09;6.30;99.90
4962;DHT22;2496;52.468;13.342;2023-12-20T05:09:36;6.20;99.90
4962;DHT22;2496;52.468;13.342;2023-12-20T05:12:04;6.20;99.90
4962;DHT22;2496;52.468;13.342;2023-12-20T05:14:32;6.20;99.90
4962;DHT22;2496;52.468;13.342;2023-12-20T05:16:59;6.20;99.90
4962;DHT22;2496;52.468;13.342;2023-12-20T05:19:26;6.20;99.90
4962;DHT22;2496;52.468;13.342;2023-12-20T05:21:53;6.20;99.90
4962;DHT22;2496;52.468;13.342;2023-12-20T05:24:20;6.20;99.90
4962;DHT22;2496;52.468;13.342;2023-12-20T05:26:47;6.20;99.90
4962;DHT22;2496;52.468;13.342;2023-12-20T05:29:23;6.20;99.90
4962;DHT22;2496;52.468;13.342;2023-12-20T05:31:51;6.10;99.90
4962;DHT22;2496;52.468;13.342;2023-12-20T05:34:18;6.10;99.90
4962;DHT22;2496;52.468;13.342;2023-12-20T05:36:46;6.00;99.90
4962;DHT22;2496;52.468;13.342;2023-12-20T05:39:17;6.00;99.90
4962;DHT22;2496;52.468;13.342;2023-12-20T05:41:44;5.90;99.90
4962;DHT22;2496;52.468;13.342;2023-12-20T05:44:11;5.90;99.90
4962;DHT22;2496;52.468;13.342;2023-12-20T05:46:38;5.90;99.90
4962;DHT22;2496;52.468;13.342;2023-12-20T05:49:07;5.90;99.90
4962;DHT22;2496;52.468;13.342;2023-12-20T05:51:33;5.90;99.90
4962;DHT22;2496;52.468;13.342;2023-12-20T05:54:01;5.80;99.90
4962;DHT22;2496;52.468;13.342;2023-12-20T05:56:28;5.80;99.90
4962;DHT22;2496;52.468;13.342;2023-12-20T05:58:55;5.80;99.90
4962;DHT22;2496;52.468;13.342;2023-12-20T06:01:22;5.70;99.90
4962;DHT22;2496;52.468;13.342;2023-12-20T06:03:49;5.70;99.90
4962;DHT22;2496;52.468;13.342;2023-12-20T06:06:17;5.70;99.90
4962;DHT22;2496;52.468;13.342;2023-12-20T06:08:44;5.70;99.90
4962;DHT22;2496;52.468;13.342;2023-12-20T06:11:11;5.70;99.90
4962;DHT22;2496;52.468;13.342;2023-12-20T06:13:39;5.70;99.90
4962;DHT22;2496;52.468;13.342;2023-12-20T06:16:12;5.70;99.90
4962;DHT22;2496;52.468;13.342;2023-12-20T06:18:39;5.70;99.90
4962;DHT22;2496;52.468;13.342;2023-12-20T06:21:06;5.70;99.90
4962;DHT22;2496;52.468;13.342;2023-12-20T06:23:35;5.60;99.90
4962;DHT22;2496;52.468;13.342;2023-12-20T06:26:02;5.60;99.90
4962;DHT22;2496;52.468;13.342;2023-12-20T06:28:29;5.70;99.90
4962;DHT22;2496;52.468;13.342;2023-12-20T06:31:00;5.60;99.90
4962;DHT22;2496;52.468;13.342;2023-12-20T06:33:28;5.60;99.90
4962;DHT22;2496;52.468;13.342;2023-12-20T06:35:56;5.60;99.90
4962;DHT22;2496;52.468;13.342;2023-12-20T06:38:23;5.60;99.90
4962;DHT22;2496;52.468;13.342;2023-12-20T06:40:52;5.60;99.90
4962;DHT22;2496;52.468;13.342;2023-12-20T06:43:19;5.60;99.90
4962;DHT22;2496;52.468;13.342;2023-12-20T06:45:46;5.60;99.90
4962;DHT22;2496;52.468;13.342;2023-12-20T06:48:13;5.60;99.90
4962;DHT22;2496;52.468;13.342;2023-12-20T06:50:40;5.60;99.90
4962;DHT22;2496;52.468;13.342;2023-12-20T06:53:07;5.60;99.90
4962;DHT22;2496;52.468;13.342;2023-12-20T06:55:35;5.60;99.90
4962;DHT22;2496;52.468;13.342;2023-12-20T06:58:04;5.70;99.90
4962;DHT22;2496;52.468;13.342;2023-12-20T07:00:32;5.60;99.90
4962;DHT22;2496;52.468;13.342;2023-12-20T07:03:02;5.60;99.90
4962;DHT22;2496;52.468;13.342;2023-12-20T07:05:29;5.60;99.90
4962;DHT22;2496;52.468;13.342;2023-12-20T07:07:56;5.70;99.90
4962;DHT22;2496;52.468;13.342;2023-12-20T07:10:23;5.60;99.90
4962;DHT22;2496;52.468;13.342;2023-12-20T07:12:50;5.60;99.90
4962;DHT22;2496;52.468;13.342;2023-12-20T07:15:19;5.70;99.90
4962;DHT22;2496;52.468;13.342;2023-12-20T07:17:46;5.60;99.90
4962;DHT22;2496;52.468;13.342;2023-12-20T07:20:13;5.60;99.90
4962;DHT22;2496;52.468;13.342;2023-12-20T07:22:40;5.60;99.90
4962;DHT22;2496;52.468;13.342;2023-12-20T07:25:07;5.60;99.90
4962;DHT22;2496;52.468;13.342;2023-12-20T07:27:34;5.60;99.90
4962;DHT22;2496;52.468;13.342;2023-12-20T07:30:02;5.70;99.90
4962;DHT22;2496;52.468;13.342;2023-12-20T07:32:30;5.60;99.90
4962;DHT22;2496;52.468;13.342;2023-12-20T07:34:57;5.60;99.90
4962;DHT22;2496;52.468;13.342;2023-12-20T07:37:24;5.60;99.90
4962;DHT22;2496;52.468;13.342;2023-12-20T07:39:51;5.70;99.90
4962;DHT22;2496;52.468;13.342;2023-12-20T07:42:18;5.70;99.90
4962;DHT22;2496;52.468;13.342;2023-12-20T07:44:47;5.70;99.90
4962;DHT22;2496;52.468;13.342;2023-12-20T07:47:14;5.70;99.90
4962;DHT22;2496;52.468;13.342;2023-12-20T07:49:48;5.70;99.90
4962;DHT22;2496;52.468;13.342;2023-12-20T07:52:17;5.70;99.90
4962;DHT22;2496;52.468;13.342;2023-12-20T07:54:44;5.70;99.90
4962;DHT22;2496;52.468;13.342;2023-12-20T07:57:11;5.70;99.90
4962;DHT22;2496;52.468;13.342;2023-12-20T07:59:38;5.80;99.90
4962;DHT22;2496;52.468;13.342;2023-12-20T08:02:05;5.80;99.90
4962;DHT22;2496;52.468;13.342;2023-12-20T08:04:32;5.80;99.90
4962;DHT22;2496;52.468;13.342;2023-12-20T08:07:00;5.80;99.90
4962;DHT22;2496;52.468;13.342;2023-12-20T08:09:27;5.80;99.90
4962;DHT22;2496;52.468;13.342;2023-12-20T08:11:57;5.80;99.90
4962;DHT22;2496;52.468;13.342;2023-12-20T08:14:25;5.80;99.90
4962;DHT22;2496;52.468;13.342;2023-12-20T08:16:52;5.80;99.90
4962;DHT22;2496;52.468;13.342;2023-12-20T08:19:19;5.90;99.90
4962;DHT22;2496;52.468;13.342;2023-12-20T08:21:46;6.00;99.90
4962;DHT22;2496;52.468;13.342;2023-12-20T08:24:14;6.10;99.90
4962;DHT22;2496;52.468;13.342;2023-12-20T08:26:41;6.20;99.90
4962;DHT22;2496;52.468;13.342;2023-12-20T08:29:07;6.20;99.90
4962;DHT22;2496;52.468;13.342;2023-12-20T08:31:34;6.30;99.90
4962;DHT22;2496;52.468;13.342;2023-12-20T08:34:01;6.30;99.90
4962;DHT22;2496;52.468;13.342;2023-12-20T08:36:28;6.30;99.90
4962;DHT22;2496;52.468;13.342;2023-12-20T08:38:55;6.30;99.90
4962;DHT22;2496;52.468;13.342;2023-12-20T08:41:23;6.40;99.90
4962;DHT22;2496;52.468;13.342;2023-12-20T08:43:50;6.40;99.90
4962;DHT22;2496;52.468;13.342;2023-12-20T08:46:17;6.50;99.90
4962;DHT22;2496;52.468;13.342;2023-12-20T08:48:44;6.50;99.90
4962;DHT22;2496;52.468;13.342;2023-12-20T08:51:12;6.60;99.90
4962;DHT22;2496;52.468;13.342;2023-12-20T08:53:39;6.70;99.90
4962;DHT22;2496;52.468;13.342;2023-12-20T08:56:07;6.80;99.90
4962;DHT22;2496;52.468;13.342;2023-12-20T08:58:35;6.80;99.90
4962;DHT22;2496;52.468;13.342;2023-12-20T09:01:02;6.80;99.90
4962;DHT22;2496;52.468;13.342;2023-12-20T09:03:29;6.70;99.90
4962;DHT22;2496;52.468;13.342;2023-12-20T09:05:56;6.50;99.90
4962;DHT22;2496;52.468;13.342;2023-12-20T09:08:23;6.50;99.90
4962;DHT22;2496;52.468;13.342;2023-12-20T09:10:50;6.50;99.90
4962;DHT22;2496;52.468;13.342;2023-12-20T09:13:17;6.50;99.90
4962;DHT22;2496;52.468;13.342;2023-12-20T09:15:46;6.50;99.90
4962;DHT22;2496;52.468;13.342;2023-12-20T09:18:13;6.50;99.90
4962;DHT22;2496;52.468;13.342;2023-12-20T09:20:40;6.50;99.90
4962;DHT22;2496;52.468;13.342;2023-12-20T09:23:07;6.50;99.90
4962;DHT22;2496;52.468;13.342;2023-12-20T09:25:34;6.50;99.90
4962;DHT22;2496;52.468;13.342;2023-12-20T09:28:01;6.50;99.90
4962;DHT22;2496;52.468;13.342;2023-12-20T09:30:28;6.50;99.90
4962;DHT22;2496;52.468;13.342;2023-12-20T09:32:57;6.50;99.90
4962;DHT22;2496;52.468;13.342;2023-12-20T09:35:24;6.40;99.90
4962;DHT22;2496;52.468;13.342;2023-12-20T09:37:51;6.40;99.90
4962;DHT22;2496;52.468;13.342;2023-12-20T09:40:19;6.40;99.90
4962;DHT22;2496;52.468;13.342;2023-12-20T09:42:50;6.40;99.90
4962;DHT22;2496;52.468;13.342;2023-12-20T09:45:20;6.40;99.90
4962;DHT22;2496;52.468;13.342;2023-12-20T09:47:49;6.30;99.90
4962;DHT22;2496;52.468;13.342;2023-12-20T09:50:18;6.40;99.90
4962;DHT22;2496;52.468;13.342;2023-12-20T09:52:49;6.40;99.90
4962;DHT22;2496;52.468;13.342;2023-12-20T09:55:17;6.40;99.90
4962;DHT22;2496;52.468;13.342;2023-12-20T09:57:45;6.40;99.90
4962;DHT22;2496;52.468;13.342;2023-12-20T10:00:14;6.50;99.90
4962;DHT22;2496;52.468;13.342;2023-12-20T10:02:45;6.50;99.90
4962;DHT22;2496;52.468;13.342;2023-12-20T10:05:17;6.50;99.90
4962;DHT22;2496;52.468;13.342;2023-12-20T10:07:46;6.50;99.90
4962;DHT22;2496;52.468;13.342;2023-12-20T10:10:14;6.50;99.90
4962;DHT22;2496;52.468;13.342;2023-12-20T10:12:41;6.50;99.90
4962;DHT22;2496;52.468;13.342;2023-12-20T10:15:27;6.50;99.90
4962;DHT22;2496;52.468;13.342;2023-12-20T10:17:54;6.50;99.90
4962;DHT22;2496;52.468;13.342;2023-12-20T10:20:23;6.50;99.90
4962;DHT22;2496;52.468;13.342;2023-12-20T10:22:50;6.50;99.90
4962;DHT22;2496;52.468;13.342;2023-12-20T10:25:19;6.50;99.90
4962;DHT22;2496;52.468;13.342;2023-12-20T10:27:46;6.60;99.90
4962;DHT22;2496;52.468;13.342;2023-12-20T10:30:13;6.60;99.90
4962;DHT22;2496;52.468;13.342;2023-12-20T10:32:40;6.60;99.90
4962;DHT22;2496;52.468;13.342;2023-12-20T10:35:08;6.60;99.90
4962;DHT22;2496;52.468;13.342;2023-12-20T10:37:37;6.60;99.90
4962;DHT22;2496;52.468;13.342;2023-12-20T10:40:05;6.60;99.90
4962;DHT22;2496;52.468;13.342;2023-12-20T10:42:33;6.60;99.90
4962;DHT22;2496;52.468;13.342;2023-12-20T10:45:01;6.60;99.90
4962;DHT22;2496;52.468;13.342;2023-12-20T10:47:30;6.60;99.90
4962;DHT22;2496;52.468;13.342;2023-12-20T10:49:59;6.70;99.90
4962;DHT22;2496;52.468;13.342;2023-12-20T10:52:28;6.70;99.90
4962;DHT22;2496;52.468;13.342;2023-12-20T10:54:57;6.80;99.90
4962;DHT22;2496;52.468;13.342;2023-12-20T10:57:26;6.80;99.90
4962;DHT22;2496;52.468;13.342;2023-12-20T10:59:54;6.80;99.90
4962;DHT22;2496;52.468;13.342;2023-12-20T11:02:22;6.80;99.90
4962;DHT22;2496;52.468;13.342;2023-12-20T11:04:52;6.80;99.90
4962;DHT22;2496;52.468;13.342;2023-12-20T11:07:23;6.80;99.90
4962;DHT22;2496;52.468;13.342;2023-12-20T11:09:58;6.80;99.90
4962;DHT22;2496;52.468;13.342;2023-12-20T11:12:34;6.80;99.90
4962;DHT22;2496;52.468;13.342;2023-12-20T11:15:04;6.80;99.90
4962;DHT22;2496;52.468;13.342;2023-12-20T11:17:32;6.80;99.90
4962;DHT22;2496;52.468;13.342;2023-12-20T11:20:07;6.80;99.90
4962;DHT22;2496;52.468;13.342;2023-12-20T11:22:36;6.80;99.90
4962;DHT22;2496;52.468;13.342;2023-12-20T11:25:07;6.80;99.90
4962;DHT22;2496;52.468;13.342;2023-12-20T11:27:35;6.80;99.90
4962;DHT22;2496;52.468;13.342;2023-12-20T11:30:03;6.80;99.90
4962;DHT22;2496;52.468;13.342;2023-12-20T11:32:34;6.80;99.90
4962;DHT22;2496;52.468;13.342;2023-12-20T11:35:17;6.80;99.90
4962;DHT22;2496;52.468;13.342;2023-12-20T11:37:45;6.80;99.90
4962;DHT22;2496;52.468;13.342;2023-12-20T11:40:16;6.80;99.90
4962;DHT22;2496;52.468;13.342;2023-12-20T11:42:44;6.80;99.90
4962;DHT22;2496;52.468;13.342;2023-12-20T11:45:13;6.70;99.90
4962;DHT22;2496;52.468;13.342;2023-12-20T11:47:42;6.70;99.90
4962;DHT22;2496;52.468;13.342;2023-12-20T11:50:10;6.80;99.90
4962;DHT22;2496;52.468;13.342;2023-12-20T11:52:37;6.70;99.90
4962;DHT22;2496;52.468;13.342;2023-12-20T11:55:04;6.70;99.90
4962;DHT22;2496;52.468;13.342;2023-12-20T11:57:33;6.70;99.90
4962;DHT22;2496;52.468;13.342;2023-12-20T12:00:00;6.70;99.90
4962;DHT22;2496;52.468;13.342;2023-12-20T12:02:27;6.80;99.90
4962;DHT22;2496;52.468;13.342;2023-12-20T12:04:54;6.80;99.90
4962;DHT22;2496;52.468;13.342;2023-12-20T12:07:22;6.80;99.90
4962;DHT22;2496;52.468;13.342;2023-12-20T12:09:49;6.80;99.90
4962;DHT22;2496;52.468;13.342;2023-12-20T12:12:16;6.80;99.90
4962;DHT22;2496;52.468;13.342;2023-12-20T12:14:46;6.80;99.90
4962;DHT22;2496;52.468;13.342;2023-12-20T12:17:13;6.80;99.90
4962;DHT22;2496;52.468;13.342;2023-12-20T12:19:40;6.80;99.90
4962;DHT22;2496;52.468;13.342;2023-12-20T12:22:08;6.80;99.90
4962;DHT22;2496;52.468;13.342;2023-12-20T12:24:38;6.80;99.90
4962;DHT22;2496;52.468;13.342;2023-12-20T12:27:06;6.80;99.90
4962;DHT22;2496;52.468;13.342;2023-12-20T12:29:34;6.80;99.90
4962;DHT22;2496;52.468;13.342;2023-12-20T12:32:04;6.80;99.90
4962;DHT22;2496;52.468;13.342;2023-12-20T12:34:32;6.80;99.90
4962;DHT22;2496;52.468;13.342;2023-12-20T12:36:59;6.80;99.90
4962;DHT22;2496;52.468;13.342;2023-12-20T12:39:26;6.80;99.90
4962;DHT22;2496;52.468;13.342;2023-12-20T12:41:55;6.80;99.90
4962;DHT22;2496;52.468;13.342;2023-12-20T12:44:23;6.80;99.90
4962;DHT22;2496;52.468;13.342;2023-12-20T12:46:50;6.80;99.90
4962;DHT22;2496;52.468;13.342;2023-12-20T12:49:20;6.70;99.90
4962;DHT22;2496;52.468;13.342;2023-12-20T12:51:48;6.70;99.90
4962;DHT22;2496;52.468;13.342;2023-12-20T12:54:15;6.60;99.90
4962;DHT22;2496;52.468;13.342;2023-12-20T12:56:43;6.60;99.90
4962;DHT22;2496;52.468;13.342;2023-12-20T12:59:12;6.50;99.90
4962;DHT22;2496;52.468;13.342;2023-12-20T13:01:39;6.50;99.90
4962;DHT22;2496;52.468;13.342;2023-12-20T13:04:06;6.50;99.90
4962;DHT22;2496;52.468;13.342;2023-12-20T13:06:38;6.50;99.90
4962;DHT22;2496;52.468;13.342;2023-12-20T13:09:06;6.50;99.90
4962;DHT22;2496;52.468;13.342;2023-12-20T13:11:35;6.50;99.90
4962;DHT22;2496;52.468;13.342;2023-12-20T13:14:02;6.40;99.90
4962;DHT22;2496;52.468;13.342;2023-12-20T13:16:29;6.50;99.90
4962;DHT22;2496;52.468;13.342;2023-12-20T13:18:56;6.40;99.90
4962;DHT22;2496;52.468;13.342;2023-12-20T13:21:24;6.40;99.90
4962;DHT22;2496;52.468;13.342;2023-12-20T13:23:52;6.40;99.90
4962;DHT22;2496;52.468;13.342;2023-12-20T13:26:20;6.40;99.90
4962;DHT22;2496;52.468;13.342;2023-12-20T13:28:46;6.40;99.90
4962;DHT22;2496;52.468;13.342;2023-12-20T13:31:13;6.50;99.90
4962;DHT22;2496;52.468;13.342;2023-12-20T13:33:40;6.50;99.90
4962;DHT22;2496;52.468;13.342;2023-12-20T13:36:08;6.50;99.90
4962;DHT22;2496;52.468;13.342;2023-12-20T13:38:35;6.40;99.90
4962;DHT22;2496;52.468;13.342;2023-12-20T13:41:03;6.30;99.90
4962;DHT22;2496;52.468;13.342;2023-12-20T13:43:31;6.20;99.90
4962;DHT22;2496;52.468;13.342;2023-12-20T13:45:58;6.20;99.90
4962;DHT22;2496;52.468;13.342;2023-12-20T13:48:25;6.20;99.90
4962;DHT22;2496;52.468;13.342;2023-12-20T13:50:52;6.20;99.90
4962;DHT22;2496;52.468;13.342;2023-12-20T13:53:20;6.20;99.90
4962;DHT22;2496;52.468;13.342;2023-12-20T13:55:47;6.20;99.90
4962;DHT22;2496;52.468;13.342;2023-12-20T13:58:16;6.10;99.90
4962;DHT22;2496;52.468;13.342;2023-12-20T14:00:43;6.10;99.90
4962;DHT22;2496;52.468;13.342;2023-12-20T14:03:10;6.00;99.90
4962;DHT22;2496;52.468;13.342;2023-12-20T14:05:37;6.00;99.90
4962;DHT22;2496;52.468;13.342;2023-12-20T14:08:05;5.90;99.90
4962;DHT22;2496;52.468;13.342;2023-12-20T14:10:32;5.90;99.90
4962;DHT22;2496;52.468;13.342;2023-12-20T14:12:59;5.80;99.90
4962;DHT22;2496;52.468;13.342;2023-12-20T14:15:27;5.80;99.90
4962;DHT22;2496;52.468;13.342;2023-12-20T14:17:54;5.80;99.90
4962;DHT22;2496;52.468;13.342;2023-12-20T14:20:21;5.70;99.90
4962;DHT22;2496;52.468;13.342;2023-12-20T14:22:48;5.70;99.90
4962;DHT22;2496;52.468;13.342;2023-12-20T14:25:15;5.60;99.90
4962;DHT22;2496;52.468;13.342;2023-12-20T14:27:43;5.60;99.90
4962;DHT22;2496;52.468;13.342;2023-12-20T14:30:11;5.50;99.90
4962;DHT22;2496;52.468;13.342;2023-12-20T14:32:41;5.50;99.90
4962;DHT22;2496;52.468;13.342;2023-12-20T14:35:08;5.50;99.90
4962;DHT22;2496;52.468;13.342;2023-12-20T14:37:35;5.50;99.90
4962;DHT22;2496;52.468;13.342;2023-12-20T14:40:05;5.40;99.90
4962;DHT22;2496;52.468;13.342;2023-12-20T14:42:36;5.50;99.90
4962;DHT22;2496;52.468;13.342;2023-12-20T14:45:04;5.50;99.90
4962;DHT22;2496;52.468;13.342;2023-12-20T14:47:31;5.50;99.90
4962;DHT22;2496;52.468;13.342;2023-12-20T14:49:59;5.50;99.90
4962;DHT22;2496;52.468;13.342;2023-12-20T14:52:26;5.50;99.90
4962;DHT22;2496;52.468;13.342;2023-12-20T14:54:53;5.50;99.90
4962;DHT22;2496;52.468;13.342;2023-12-20T14:57:20;5.50;99.90
4962;DHT22;2496;52.468;13.342;2023-12-20T14:59:47;5.50;99.90
4962;DHT22;2496;52.468;13.342;2023-12-20T15:02:14;5.50;99.90
4962;DHT22;2496;52.468;13.342;2023-12-20T15:04:41;5.50;99.90
4962;DHT22;2496;52.468;13.342;2023-12-20T15:07:09;5.50;99.90
4962;DHT22;2496;52.468;13.342;2023-12-20T15:09:38;5.50;99.90
4962;DHT22;2496;52.468;13.342;2023-12-20T15:12:06;5.40;99.90
4962;DHT22;2496;52.468;13.342;2023-12-20T15:14:34;5.40;99.90
4962;DHT22;2496;52.468;13.342;2023-12-20T15:17:01;5.40;99.90
4962;DHT22;2496;52.468;13.342;2023-12-20T15:19:28;5.40;99.90
4962;DHT22;2496;52.468;13.342;2023-12-20T15:21:56;5.50;99.90
4962;DHT22;2496;52.468;13.342;2023-12-20T15:24:26;5.50;99.90
4962;DHT22;2496;52.468;13.342;2023-12-20T15:26:54;5.50;99.90
4962;DHT22;2496;52.468;13.342;2023-12-20T15:29:21;5.50;99.90
4962;DHT22;2496;52.468;13.342;2023-12-20T15:31:48;5.40;99.90
4962;DHT22;2496;52.468;13.342;2023-12-20T15:34:15;5.40;99.90
4962;DHT22;2496;52.468;13.342;2023-12-20T15:36:43;5.40;99.90
4962;DHT22;2496;52.468;13.342;2023-12-20T15:39:10;5.40;99.90
4962;DHT22;2496;52.468;13.342;2023-12-20T15:41:41;5.30;99.90
4962;DHT22;2496;52.468;13.342;2023-12-20T15:44:08;5.30;99.90
4962;DHT22;2496;52.468;13.342;2023-12-20T15:46:35;5.30;99.90
4962;DHT22;2496;52.468;13.342;2023-12-20T15:49:02;5.30;99.90
4962;DHT22;2496;52.468;13.342;2023-12-20T15:51:30;5.30;99.90
4962;DHT22;2496;52.468;13.342;2023-12-20T15:53:57;5.30;99.90
4962;DHT22;2496;52.468;13.342;2023-12-20T15:56:23;5.20;99.90
4962;DHT22;2496;52.468;13.342;2023-12-20T15:58:52;5.20;99.90
4962;DHT22;2496;52.468;13.342;2023-12-20T16:01:20;5.20;99.90
4962;DHT22;2496;52.468;13.342;2023-12-20T16:03:47;5.10;99.90
4962;DHT22;2496;52.468;13.342;2023-12-20T16:06:14;5.10;99.90